createdAt,value
2023-03-16T00:03:09.251Z,52.43
2023-03-16T00:08:02.058Z,52.56
2023-03-16T00:12:55.582Z,52.27
2023-03-16T00:17:48.895Z,52.33
2023-03-16T00:22:42.175Z,52.10
2023-03-16T00:27:35.378Z,52.14
2023-03-16T00:32:32.765Z,52.21
2023-03-16T00:37:27.590Z,52.14
2023-03-16T00:42:20.525Z,52.13
2023-03-16T00:47:16.064Z,52.11
2023-03-16T00:52:10.065Z,51.89
2023-03-16T00:57:03.679Z,52.07
2023-03-16T01:01:56.146Z,52.14
2023-03-16T01:06:49.520Z,52.03
2023-03-16T01:11:45.873Z,52.05
2023-03-16T01:16:39.588Z,52.12
2023-03-16T01:21:33.895Z,52.04
2023-03-16T01:26:26.366Z,52.20
2023-03-16T01:31:19.656Z,52.18
2023-03-16T01:36:15.416Z,52.03
2023-03-16T01:41:22.810Z,51.89
2023-03-16T01:46:33.368Z,51.85
2023-03-16T01:52:04.732Z,52.07
2023-03-16T01:57:16.869Z,51.83
2023-03-16T02:02:14.624Z,51.85
2023-03-16T02:07:08.702Z,51.97
2023-03-16T02:12:02.079Z,51.85
2023-03-16T02:16:58.151Z,51.80
2023-03-16T02:22:02.639Z,51.96
2023-03-16T02:27:06.326Z,51.79
2023-03-16T02:32:03.922Z,51.88
2023-03-16T02:36:59.269Z,51.83
2023-03-16T02:41:53.000Z,51.76
2023-03-16T02:46:49.163Z,51.58
2023-03-16T02:51:42.155Z,51.50
2023-03-16T02:56:34.662Z,51.32
2023-03-16T03:01:27.273Z,51.22
2023-03-16T03:06:21.318Z,51.23
2023-03-16T03:11:14.950Z,51.18
2023-03-16T03:16:09.042Z,51.12
2023-03-16T03:21:01.923Z,51.01
2023-03-16T03:26:01.155Z,51.05
2023-03-16T03:30:55.054Z,51.06
2023-03-16T03:35:47.391Z,51.20
2023-03-16T03:40:39.934Z,50.77
2023-03-16T03:45:33.314Z,50.94
2023-03-16T03:50:26.820Z,50.86
2023-03-16T03:55:45.663Z,50.79
2023-03-16T04:00:38.596Z,50.60
2023-03-16T04:05:30.967Z,50.80
2023-03-16T04:10:31.273Z,50.73
2023-03-16T04:15:25.302Z,50.62
2023-03-16T04:20:45.318Z,50.41
2023-03-16T04:25:43.902Z,50.62
2023-03-16T04:30:39.766Z,50.60
2023-03-16T04:35:42.345Z,50.50
2023-03-16T04:40:35.057Z,50.62
2023-03-16T04:45:34.828Z,50.50
2023-03-16T04:50:28.139Z,50.60
2023-03-16T04:55:23.415Z,50.66
2023-03-16T05:00:21.042Z,50.71
2023-03-16T05:05:31.661Z,50.58
2023-03-16T05:10:25.324Z,50.64
2023-03-16T05:15:18.516Z,50.53
2023-03-16T05:20:22.149Z,50.38
2023-03-16T05:25:21.118Z,50.51
2023-03-16T05:30:17.855Z,50.43
2023-03-16T05:35:31.859Z,50.43
2023-03-16T05:40:30.209Z,50.09
2023-03-16T05:45:40.286Z,49.93
2023-03-16T05:50:38.602Z,49.89
2023-03-16T05:55:35.501Z,50.00
2023-03-16T06:00:30.616Z,50.04
2023-03-16T06:05:36.877Z,49.98
2023-03-16T06:10:31.241Z,49.98
2023-03-16T06:15:27.481Z,49.97
2023-03-16T06:20:22.101Z,49.84
2023-03-16T06:25:17.479Z,49.99
2023-03-16T06:30:14.901Z,50.18
2023-03-16T06:35:10.253Z,50.18
2023-03-16T06:40:07.105Z,50.11
2023-03-16T06:45:01.605Z,50.11
2023-03-16T06:49:56.180Z,49.82
2023-03-16T06:54:51.563Z,50.10
2023-03-16T06:59:45.742Z,49.91
2023-03-16T07:04:37.887Z,50.00
2023-03-16T07:09:30.709Z,49.63
2023-03-16T07:14:23.914Z,49.73
2023-03-16T07:19:18.367Z,49.77
2023-03-16T07:24:11.692Z,49.64
2023-03-16T07:29:07.167Z,49.77
2023-03-16T07:34:02.456Z,49.79
2023-03-16T07:39:06.703Z,49.80
2023-03-16T07:44:01.443Z,49.56
2023-03-16T07:48:54.923Z,49.81
2023-03-16T07:53:46.980Z,49.66
2023-03-16T07:58:45.051Z,49.57
2023-03-16T08:03:38.800Z,49.75
2023-03-16T08:08:33.318Z,49.46
2023-03-16T08:13:27.353Z,47.20
2023-03-16T08:18:21.718Z,36.59
2023-03-16T08:23:16.020Z,35.95
2023-03-16T08:28:10.014Z,35.25
2023-03-16T08:33:04.885Z,34.47
2023-03-16T08:37:57.901Z,34.16
2023-03-16T08:42:54.933Z,35.00
2023-03-16T08:47:48.392Z,34.63
2023-03-16T08:52:41.857Z,34.51
2023-03-16T08:57:34.818Z,34.72
2023-03-16T09:02:28.620Z,34.98
2023-03-16T09:07:21.286Z,35.35
2023-03-16T09:12:13.778Z,34.89
2023-03-16T09:17:08.241Z,35.39
2023-03-16T09:22:00.501Z,35.07
2023-03-16T09:26:52.911Z,35.09
2023-03-16T09:31:46.198Z,35.24
2023-03-16T09:36:39.415Z,34.96
2023-03-16T09:41:47.715Z,34.61
2023-03-16T09:46:43.886Z,37.19
2023-03-16T09:51:44.262Z,35.27
2023-03-16T09:56:42.407Z,35.23
2023-03-16T10:02:04.978Z,35.97
2023-03-16T10:07:21.635Z,36.36
2023-03-16T10:12:16.628Z,35.14
2023-03-16T10:17:24.412Z,37.93
2023-03-16T10:22:32.070Z,40.59
2023-03-16T10:27:51.084Z,40.25
2023-03-16T10:32:44.058Z,40.75
2023-03-16T10:37:38.733Z,41.42
2023-03-16T10:42:31.978Z,41.73
2023-03-16T10:47:30.394Z,42.16
2023-03-16T10:52:25.446Z,42.30
2023-03-16T10:57:21.447Z,42.28
2023-03-16T11:02:21.419Z,42.31
2023-03-16T11:07:24.681Z,43.02
2023-03-16T11:12:27.965Z,43.06
2023-03-16T11:17:30.409Z,42.70
2023-03-16T11:22:25.639Z,43.20
2023-03-16T11:27:52.265Z,43.30
2023-03-16T11:32:51.844Z,43.32
2023-03-16T11:38:10.409Z,43.11
2023-03-16T11:43:30.905Z,43.38
2023-03-16T11:48:43.594Z,43.67
2023-03-16T11:54:17.970Z,43.49
2023-03-16T12:00:01.172Z,43.65
2023-03-16T12:05:08.487Z,43.64
2023-03-16T12:10:10.058Z,43.98
2023-03-16T12:15:26.148Z,43.80
2023-03-16T12:20:25.335Z,43.79
2023-03-16T12:25:22.540Z,43.96
2023-03-16T12:30:26.387Z,44.07
2023-03-16T12:35:34.226Z,44.22
2023-03-16T12:40:59.757Z,44.32
2023-03-16T12:45:54.803Z,43.96
2023-03-16T12:51:07.980Z,43.84
2023-03-16T12:56:10.337Z,43.76
2023-03-16T13:01:09.961Z,43.77
2023-03-16T13:06:04.395Z,43.65
2023-03-16T13:11:15.173Z,43.97
2023-03-16T13:16:28.981Z,43.57
2023-03-16T13:21:40.429Z,43.63
2023-03-16T13:26:58.388Z,43.63
2023-03-16T13:31:53.011Z,43.88
2023-03-16T13:36:47.061Z,45.07
2023-03-16T13:41:42.880Z,44.67
2023-03-16T13:46:36.902Z,44.64
2023-03-16T13:51:34.127Z,44.54
2023-03-16T13:56:32.488Z,44.66
2023-03-16T14:01:28.329Z,45.84
2023-03-16T14:06:26.313Z,47.40
2023-03-16T14:11:19.109Z,47.32
2023-03-16T14:16:18.970Z,46.84
2023-03-16T14:21:18.545Z,46.25
2023-03-16T14:26:16.390Z,46.09
2023-03-16T14:31:19.904Z,46.13
2023-03-16T14:36:18.527Z,45.66
2023-03-16T14:41:11.596Z,45.71
2023-03-16T14:46:08.100Z,45.47
2023-03-16T14:51:03.251Z,45.52
2023-03-16T14:55:57.148Z,45.52
2023-03-16T15:00:53.614Z,45.40
2023-03-16T15:05:48.892Z,45.30
2023-03-16T15:10:43.753Z,45.38
2023-03-16T15:15:37.336Z,45.23
2023-03-16T15:20:35.370Z,45.21
2023-03-16T15:25:38.077Z,45.34
2023-03-16T15:30:31.984Z,45.21
2023-03-16T15:35:25.379Z,45.23
2023-03-16T15:40:26.674Z,45.02
2023-03-16T15:45:22.449Z,45.14
2023-03-16T15:50:17.433Z,45.14
2023-03-16T15:55:20.705Z,44.96
2023-03-16T16:00:28.599Z,45.06
2023-03-16T16:05:24.141Z,45.15
2023-03-16T16:10:18.313Z,45.23
2023-03-16T16:15:27.645Z,45.13
2023-03-16T16:20:27.640Z,45.03
2023-03-16T16:25:24.697Z,45.21
2023-03-16T16:30:24.160Z,45.14
2023-03-16T16:35:20.918Z,45.17
2023-03-16T16:40:23.684Z,44.97
2023-03-16T16:45:24.255Z,44.99
2023-03-16T16:50:25.897Z,45.08
2023-03-16T16:55:19.733Z,44.97
2023-03-16T17:00:26.464Z,44.79
2023-03-16T17:05:25.166Z,44.80
2023-03-16T17:10:26.477Z,44.66
2023-03-16T17:15:22.735Z,44.76
2023-03-16T17:20:21.648Z,44.68
2023-03-16T17:25:17.194Z,44.50
2023-03-16T17:30:20.900Z,44.52
2023-03-16T17:35:16.039Z,44.46
2023-03-16T17:40:18.990Z,44.42
2023-03-16T17:45:24.869Z,44.47
2023-03-16T17:50:26.714Z,44.33
2023-03-16T17:55:25.405Z,44.26
2023-03-16T18:00:27.960Z,44.65
2023-03-16T18:05:27.951Z,44.60
2023-03-16T18:10:29.318Z,45.09
2023-03-16T18:15:23.035Z,46.19
2023-03-16T18:20:27.720Z,47.78
2023-03-16T18:25:30.547Z,48.77
2023-03-16T18:30:23.575Z,48.74
2023-03-16T18:35:18.421Z,48.57
2023-03-16T18:40:17.643Z,48.73
2023-03-16T18:45:15.009Z,48.93
2023-03-16T18:50:18.698Z,48.91
2023-03-16T18:55:20.714Z,48.59
2023-03-16T19:00:21.098Z,48.62
2023-03-16T19:05:20.753Z,48.46
2023-03-16T19:10:24.054Z,48.23
2023-03-16T19:15:32.086Z,48.10
2023-03-16T19:20:28.781Z,47.96
2023-03-16T19:25:31.975Z,47.80
2023-03-16T19:30:32.556Z,47.49
2023-03-16T19:35:44.304Z,47.63
2023-03-16T19:40:41.668Z,47.42
2023-03-16T19:45:34.375Z,47.33
2023-03-16T19:50:28.961Z,47.42
2023-03-16T19:55:26.852Z,47.35
2023-03-16T20:00:25.390Z,47.53
2023-03-16T20:05:21.188Z,47.55
2023-03-16T20:10:19.247Z,47.73
2023-03-16T20:15:35.733Z,47.56
2023-03-16T20:20:30.996Z,47.26
2023-03-16T20:25:25.609Z,47.42
2023-03-16T20:30:19.996Z,47.51
2023-03-16T20:35:19.271Z,47.59
2023-03-16T20:40:13.260Z,47.74
2023-03-16T20:45:19.792Z,47.60
2023-03-16T20:50:23.624Z,47.66
2023-03-16T20:55:19.410Z,47.70
2023-03-16T21:00:33.706Z,47.80
2023-03-16T21:05:26.340Z,47.73
2023-03-16T21:10:23.710Z,47.84
2023-03-16T21:15:32.007Z,48.76
2023-03-16T21:20:28.171Z,48.43
2023-03-16T21:25:26.682Z,48.58
2023-03-16T21:30:40.465Z,48.85
2023-03-16T21:35:35.845Z,48.87
2023-03-16T21:40:29.874Z,49.12
2023-03-16T21:45:23.709Z,49.22
2023-03-16T21:50:22.726Z,49.42
2023-03-16T21:55:33.835Z,49.81
2023-03-16T22:00:35.905Z,49.79
2023-03-16T22:05:35.260Z,50.20
2023-03-16T22:10:30.448Z,50.04
2023-03-16T22:15:28.311Z,49.81
2023-03-16T22:20:41.683Z,49.58
2023-03-16T22:25:34.375Z,49.49
2023-03-16T22:30:28.456Z,49.58
2023-03-16T22:35:27.865Z,49.57
2023-03-16T22:40:24.134Z,49.47
2023-03-16T22:45:21.582Z,49.58
2023-03-16T22:50:17.012Z,49.40
2023-03-16T22:55:32.518Z,49.44
2023-03-16T23:00:28.822Z,49.28
2023-03-16T23:05:25.218Z,49.24
2023-03-16T23:10:21.617Z,49.46
2023-03-16T23:15:21.101Z,49.38
2023-03-16T23:20:21.414Z,49.36
2023-03-16T23:25:14.822Z,49.30
2023-03-16T23:30:26.986Z,49.60
2023-03-16T23:35:31.620Z,49.81
2023-03-16T23:40:27.661Z,49.90
2023-03-16T23:45:28.945Z,50.28
2023-03-16T23:50:27.322Z,50.59
2023-03-16T23:55:20.490Z,51.15
